sensor_id;sensor_type;location;lat;lon;timestamp;pressure;altitude;pressure_sealevel;temperature;humidity
64064;BME280;50314;50.618;10.642;2023-03-25T00:01:09;95658.81;;;16.71;26.77
64064;BME280;50314;50.618;10.642;2023-03-25T00:03:38;95653.03;;;16.67;26.53
64064;BME280;50314;50.618;10.642;2023-03-25T00:06:09;95656.53;;;16.68;26.68
64064;BME280;50314;50.618;10.642;2023-03-25T00:08:35;95659.19;;;16.68;26.51
64064;BME280;50314;50.618;10.642;2023-03-25T00:11:01;95653.88;;;16.68;26.92
64064;BME280;50314;50.618;10.642;2023-03-25T00:13:29;95651.19;;;16.68;26.55
64064;BME280;50314;50.618;10.642;2023-03-25T00:15:56;95648.94;;;16.65;26.93
64064;BME280;50314;50.618;10.642;2023-03-25T00:18:26;95652.56;;;16.64;26.67
64064;BME280;50314;50.618;10.642;2023-03-25T00:21:01;95647.25;;;16.64;26.64
64064;BME280;50314;50.618;10.642;2023-03-25T00:23:28;95643.78;;;16.63;26.35
64064;BME280;50314;50.618;10.642;2023-03-25T00:25:53;95634.97;;;16.63;26.60
64064;BME280;50314;50.618;10.642;2023-03-25T00:28:25;95645.59;;;16.63;26.54
64064;BME280;50314;50.618;10.642;2023-03-25T00:30:52;95642.28;;;16.61;26.57
64064;BME280;50314;50.618;10.642;2023-03-25T00:33:18;95643.09;;;16.61;26.71
64064;BME280;50314;50.618;10.642;2023-03-25T00:35:43;95635.31;;;16.60;26.64
64064;BME280;50314;50.618;10.642;2023-03-25T00:38:12;95639.81;;;16.59;26.66
64064;BME280;50314;50.618;10.642;2023-03-25T00:40:38;95640.63;;;16.60;26.65
64064;BME280;50314;50.618;10.642;2023-03-25T00:43:04;95645.13;;;16.59;26.62
64064;BME280;50314;50.618;10.642;2023-03-25T00:45:30;95653.25;;;16.58;26.64
64064;BME280;50314;50.618;10.642;2023-03-25T00:47:56;95657.75;;;16.57;26.79
64064;BME280;50314;50.618;10.642;2023-03-25T00:50:22;95657.75;;;16.57;26.71
64064;BME280;50314;50.618;10.642;2023-03-25T00:52:48;95656.13;;;16.56;26.57
64064;BME280;50314;50.618;10.642;2023-03-25T00:55:13;95660.59;;;16.56;26.64
64064;BME280;50314;50.618;10.642;2023-03-25T00:57:39;95651.81;;;16.55;26.80
64064;BME280;50314;50.618;10.642;2023-03-25T01:00:08;95652.78;;;16.54;26.84
64064;BME280;50314;50.618;10.642;2023-03-25T01:02:34;95647.47;;;16.54;26.62
64064;BME280;50314;50.618;10.642;2023-03-25T01:05:00;95651.16;;;16.53;26.71
64064;BME280;50314;50.618;10.642;2023-03-25T01:07:26;95651.97;;;16.54;26.73
64064;BME280;50314;50.618;10.642;2023-03-25T01:09:54;95649.38;;;16.46;26.87
64064;BME280;50314;50.618;10.642;2023-03-25T01:12:20;95639.03;;;16.51;26.68
64064;BME280;50314;50.618;10.642;2023-03-25T01:14:46;95632.72;;;16.52;26.68
64064;BME280;50314;50.618;10.642;2023-03-25T01:17:11;95632.72;;;16.52;26.65
64064;BME280;50314;50.618;10.642;2023-03-25T01:19:37;95634.38;;;16.53;26.74
64064;BME280;50314;50.618;10.642;2023-03-25T01:22:03;95630.72;;;16.54;26.68
64064;BME280;50314;50.618;10.642;2023-03-25T01:24:28;95620.06;;;16.54;26.56
64064;BME280;50314;50.618;10.642;2023-03-25T01:26:53;95601.47;;;16.54;26.71
64064;BME280;50314;50.618;10.642;2023-03-25T01:29:20;95612.09;;;16.54;26.79
64064;BME280;50314;50.618;10.642;2023-03-25T01:31:45;95610.25;;;16.54;26.75
64064;BME280;50314;50.618;10.642;2023-03-25T01:34:12;95611.09;;;16.55;26.67
64064;BME280;50314;50.618;10.642;2023-03-25T01:36:38;95604.13;;;16.54;26.59
64064;BME280;50314;50.618;10.642;2023-03-25T01:39:11;95614.13;;;16.52;26.80
64064;BME280;50314;50.618;10.642;2023-03-25T01:41:37;95607.13;;;16.51;26.84
64064;BME280;50314;50.618;10.642;2023-03-25T01:46:33;95620.44;;;16.51;26.65
64064;BME280;50314;50.618;10.642;2023-03-25T01:49:01;95616.13;;;16.50;26.77
64064;BME280;50314;50.618;10.642;2023-03-25T01:51:31;95618.78;;;16.50;26.79
64064;BME280;50314;50.618;10.642;2023-03-25T01:53:58;95607.31;;;16.49;26.91
64064;BME280;50314;50.618;10.642;2023-03-25T01:56:30;95609.31;;;16.47;26.94
64064;BME280;50314;50.618;10.642;2023-03-25T01:59:00;95609.16;;;16.49;26.87
64064;BME280;50314;50.618;10.642;2023-03-25T02:01:27;95603.66;;;16.50;26.77
64064;BME280;50314;50.618;10.642;2023-03-25T02:03:54;95600.19;;;16.50;26.92
64064;BME280;50314;50.618;10.642;2023-03-25T02:06:35;95596.56;;;16.42;27.09
64064;BME280;50314;50.618;10.642;2023-03-25T02:09:03;95596.84;;;16.48;26.84
64064;BME280;50314;50.618;10.642;2023-03-25T02:11:31;95591.53;;;16.48;26.78
64064;BME280;50314;50.618;10.642;2023-03-25T02:14:00;95593.84;;;16.51;26.81
64064;BME280;50314;50.618;10.642;2023-03-25T02:16:41;95583.56;;;16.48;26.87
64064;BME280;50314;50.618;10.642;2023-03-25T02:28:07;95582.94;;;16.46;26.94
64064;BME280;50314;50.618;10.642;2023-03-25T02:34:29;95595.75;;;16.42;26.84
64064;BME280;50314;50.618;10.642;2023-03-25T02:42:14;95601.06;;;16.42;26.85
64064;BME280;50314;50.618;10.642;2023-03-25T02:45:00;95604.72;;;16.41;26.90
64064;BME280;50314;50.618;10.642;2023-03-25T02:47:35;95608.84;;;16.43;27.04
64064;BME280;50314;50.618;10.642;2023-03-25T02:50:09;95607.22;;;16.42;27.03
64064;BME280;50314;50.618;10.642;2023-03-25T02:52:40;95612.16;;;16.46;26.84
64064;BME280;50314;50.618;10.642;2023-03-25T02:55:10;95613.16;;;16.44;27.03
64064;BME280;50314;50.618;10.642;2023-03-25T02:57:41;95617.84;;;16.42;26.88
64064;BME280;50314;50.618;10.642;2023-03-25T03:00:10;95615.00;;;16.44;26.97
64064;BME280;50314;50.618;10.642;2023-03-25T03:02:45;95615.19;;;16.42;27.04
64064;BME280;50314;50.618;10.642;2023-03-25T03:10:48;95620.66;;;16.41;27.01
64064;BME280;50314;50.618;10.642;2023-03-25T03:13:23;95619.66;;;16.42;26.95
64064;BME280;50314;50.618;10.642;2023-03-25T03:16:10;95604.34;;;16.44;26.91
64064;BME280;50314;50.618;10.642;2023-03-25T03:21:27;95591.63;;;16.39;26.81
64064;BME280;50314;50.618;10.642;2023-03-25T03:24:03;95591.25;;;16.42;26.87
64064;BME280;50314;50.618;10.642;2023-03-25T03:26:44;95593.25;;;16.40;26.86
64064;BME280;50314;50.618;10.642;2023-03-25T03:29:18;95596.38;;;16.44;26.84
64064;BME280;50314;50.618;10.642;2023-03-25T03:34:51;95611.22;;;16.38;26.92
64064;BME280;50314;50.618;10.642;2023-03-25T03:37:22;95606.53;;;16.40;26.95
64064;BME280;50314;50.618;10.642;2023-03-25T03:39:53;95610.22;;;16.39;26.87
64064;BME280;50314;50.618;10.642;2023-03-25T03:44:54;95609.03;;;16.42;26.87
64064;BME280;50314;50.618;10.642;2023-03-25T03:47:24;95625.16;;;16.40;26.77
64064;BME280;50314;50.618;10.642;2023-03-25T03:49:57;95624.31;;;16.40;26.81
64064;BME280;50314;50.618;10.642;2023-03-25T03:52:34;95631.00;;;16.36;27.03
64064;BME280;50314;50.618;10.642;2023-03-25T03:55:40;95617.88;;;16.34;26.80
64064;BME280;50314;50.618;10.642;2023-03-25T03:58:16;95623.84;;;16.36;26.95
64064;BME280;50314;50.618;10.642;2023-03-25T04:01:02;95617.88;;;16.34;26.83
64064;BME280;50314;50.618;10.642;2023-03-25T04:03:33;95614.88;;;16.37;26.70
64064;BME280;50314;50.618;10.642;2023-03-25T04:06:18;95613.56;;;16.33;26.89
64064;BME280;50314;50.618;10.642;2023-03-25T04:08:59;95616.88;;;16.35;26.88
64064;BME280;50314;50.618;10.642;2023-03-25T04:11:36;95619.53;;;16.35;26.80
64064;BME280;50314;50.618;10.642;2023-03-25T04:14:04;95621.00;;;16.38;26.86
64064;BME280;50314;50.618;10.642;2023-03-25T04:16:32;95618.19;;;16.39;26.87
64064;BME280;50314;50.618;10.642;2023-03-25T04:18:57;95614.03;;;16.37;26.78
64064;BME280;50314;50.618;10.642;2023-03-25T04:21:23;95616.69;;;16.37;26.90
64064;BME280;50314;50.618;10.642;2023-03-25T04:23:49;95609.56;;;16.37;26.86
64064;BME280;50314;50.618;10.642;2023-03-25T04:26:16;95612.41;;;16.36;26.75
64064;BME280;50314;50.618;10.642;2023-03-25T04:28:41;95603.59;;;16.35;26.64
64064;BME280;50314;50.618;10.642;2023-03-25T04:31:12;95600.16;;;16.27;26.96
64064;BME280;50314;50.618;10.642;2023-03-25T04:33:41;95597.00;;;16.31;26.86
64064;BME280;50314;50.618;10.642;2023-03-25T04:36:07;95595.97;;;16.32;26.91
64064;BME280;50314;50.618;10.642;2023-03-25T04:38:33;95589.84;;;16.32;27.05
64064;BME280;50314;50.618;10.642;2023-03-25T04:40:58;95591.50;;;16.33;26.92
64064;BME280;50314;50.618;10.642;2023-03-25T04:43:24;95591.50;;;16.33;26.65
64064;BME280;50314;50.618;10.642;2023-03-25T04:45:49;95595.16;;;16.32;26.94
64064;BME280;50314;50.618;10.642;2023-03-25T04:48:24;95591.00;;;16.29;26.93
64064;BME280;50314;50.618;10.642;2023-03-25T04:50:54;95600.47;;;16.32;26.98
64064;BME280;50314;50.618;10.642;2023-03-25T04:53:22;95589.19;;;16.30;26.75
64064;BME280;50314;50.618;10.642;2023-03-25T04:55:47;95601.44;;;16.31;26.82
64064;BME280;50314;50.618;10.642;2023-03-25T04:58:14;95603.94;;;16.32;26.93
64064;BME280;50314;50.618;10.642;2023-03-25T05:00:41;95598.78;;;16.31;26.70
64064;BME280;50314;50.618;10.642;2023-03-25T05:03:07;95603.16;;;16.24;26.94
64064;BME280;50314;50.618;10.642;2023-03-25T05:05:33;95606.13;;;16.29;26.99
64064;BME280;50314;50.618;10.642;2023-03-25T05:07:59;95607.13;;;16.28;26.94
64064;BME280;50314;50.618;10.642;2023-03-25T05:10:26;95605.31;;;16.28;26.78
64064;BME280;50314;50.618;10.642;2023-03-25T05:13:03;95599.53;;;16.25;26.81
64064;BME280;50314;50.618;10.642;2023-03-25T05:15:30;95601.81;;;16.28;26.91
64064;BME280;50314;50.618;10.642;2023-03-25T05:17:57;95605.47;;;16.27;26.91
64064;BME280;50314;50.618;10.642;2023-03-25T05:20:23;95603.81;;;16.26;26.88
64064;BME280;50314;50.618;10.642;2023-03-25T05:22:49;95611.78;;;16.26;27.01
64064;BME280;50314;50.618;10.642;2023-03-25T05:25:18;95610.16;;;16.25;26.81
64064;BME280;50314;50.618;10.642;2023-03-25T05:27:47;95610.16;;;16.25;26.81
64064;BME280;50314;50.618;10.642;2023-03-25T05:30:12;95614.59;;;16.24;26.76
64064;BME280;50314;50.618;10.642;2023-03-25T05:32:38;95612.81;;;16.25;26.93
64064;BME280;50314;50.618;10.642;2023-03-25T05:35:05;95626.09;;;16.25;26.92
64064;BME280;50314;50.618;10.642;2023-03-25T05:37:31;95618.28;;;16.23;26.86
64064;BME280;50314;50.618;10.642;2023-03-25T05:39:57;95622.78;;;16.23;26.73
64064;BME280;50314;50.618;10.642;2023-03-25T05:42:23;95614.59;;;16.24;26.77
64064;BME280;50314;50.618;10.642;2023-03-25T05:44:49;95620.94;;;16.23;26.76
64064;BME280;50314;50.618;10.642;2023-03-25T05:47:23;95617.81;;;16.19;26.86
64064;BME280;50314;50.618;10.642;2023-03-25T05:49:49;95618.28;;;16.23;26.92
64064;BME280;50314;50.618;10.642;2023-03-25T05:52:16;95628.09;;;16.23;26.93
64064;BME280;50314;50.618;10.642;2023-03-25T05:54:43;95634.28;;;16.15;27.01
64064;BME280;50314;50.618;10.642;2023-03-25T05:57:10;95635.22;;;16.22;26.88
64064;BME280;50314;50.618;10.642;2023-03-25T05:59:35;95633.22;;;16.24;26.91
64064;BME280;50314;50.618;10.642;2023-03-25T06:02:13;95626.44;;;16.22;27.05
64064;BME280;50314;50.618;10.642;2023-03-25T06:04:38;95627.06;;;16.24;26.77
64064;BME280;50314;50.618;10.642;2023-03-25T06:07:14;95635.56;;;16.19;26.67
64064;BME280;50314;50.618;10.642;2023-03-25T06:09:45;95636.88;;;16.23;26.68
64064;BME280;50314;50.618;10.642;2023-03-25T06:12:18;95641.53;;;16.21;26.61
64064;BME280;50314;50.618;10.642;2023-03-25T06:14:44;95650.16;;;16.23;26.64
64064;BME280;50314;50.618;10.642;2023-03-25T06:17:11;95647.34;;;16.25;26.64
64064;BME280;50314;50.618;10.642;2023-03-25T06:19:37;95650.81;;;16.25;26.64
64064;BME280;50314;50.618;10.642;2023-03-25T06:22:05;95653.47;;;16.25;26.58
64064;BME280;50314;50.618;10.642;2023-03-25T06:24:36;95649.81;;;16.26;26.70
64064;BME280;50314;50.618;10.642;2023-03-25T06:27:03;95665.75;;;16.26;26.62
64064;BME280;50314;50.618;10.642;2023-03-25T06:29:28;95663.09;;;16.26;26.75
64064;BME280;50314;50.618;10.642;2023-03-25T06:31:53;95671.88;;;16.27;26.61
64064;BME280;50314;50.618;10.642;2023-03-25T06:34:19;95671.06;;;16.26;26.74
64064;BME280;50314;50.618;10.642;2023-03-25T06:36:45;95679.84;;;16.27;26.68
64064;BME280;50314;50.618;10.642;2023-03-25T06:39:15;95680.69;;;16.27;26.69
64064;BME280;50314;50.618;10.642;2023-03-25T06:41:40;95681.50;;;16.28;26.65
64064;BME280;50314;50.618;10.642;2023-03-25T06:44:06;95686.81;;;16.28;26.80
64064;BME280;50314;50.618;10.642;2023-03-25T06:46:31;95686.00;;;16.27;26.64
64064;BME280;50314;50.618;10.642;2023-03-25T06:48:56;95684.00;;;16.29;26.78
64064;BME280;50314;50.618;10.642;2023-03-25T06:51:22;95692.13;;;16.28;26.74
64064;BME280;50314;50.618;10.642;2023-03-25T06:53:48;95698.31;;;16.28;26.82
64064;BME280;50314;50.618;10.642;2023-03-25T06:56:13;95702.59;;;16.29;26.92
64064;BME280;50314;50.618;10.642;2023-03-25T06:58:38;95701.78;;;16.29;26.79
64064;BME280;50314;50.618;10.642;2023-03-25T07:01:05;95700.78;;;16.30;26.87
64064;BME280;50314;50.618;10.642;2023-03-25T07:03:32;95704.09;;;16.32;26.81
64064;BME280;50314;50.618;10.642;2023-03-25T07:05:57;95705.75;;;16.33;26.76
64064;BME280;50314;50.618;10.642;2023-03-25T07:08:23;95705.56;;;16.34;26.85
64064;BME280;50314;50.618;10.642;2023-03-25T07:10:48;95710.72;;;16.36;26.83
64064;BME280;50314;50.618;10.642;2023-03-25T07:13:14;95705.22;;;16.37;26.84
64064;BME280;50314;50.618;10.642;2023-03-25T07:15:40;95707.72;;;16.39;26.73
64064;BME280;50314;50.618;10.642;2023-03-25T07:18:05;95703.22;;;16.39;26.93
64064;BME280;50314;50.618;10.642;2023-03-25T07:20:31;95696.25;;;16.38;26.87
64064;BME280;50314;50.618;10.642;2023-03-25T07:22:56;95703.22;;;16.39;26.73
64064;BME280;50314;50.618;10.642;2023-03-25T07:25:22;95715.50;;;16.40;27.01
64064;BME280;50314;50.618;10.642;2023-03-25T07:27:47;95710.03;;;16.42;26.80
64064;BME280;50314;50.618;10.642;2023-03-25T07:30:13;95715.97;;;16.44;26.59
64064;BME280;50314;50.618;10.642;2023-03-25T07:32:38;95708.66;;;16.46;26.66
64064;BME280;50314;50.618;10.642;2023-03-25T07:35:04;95717.47;;;16.47;26.67
64064;BME280;50314;50.618;10.642;2023-03-25T07:37:30;95719.97;;;16.48;26.51
64064;BME280;50314;50.618;10.642;2023-03-25T07:39:56;95718.13;;;16.49;26.58
64064;BME280;50314;50.618;10.642;2023-03-25T07:42:21;95711.81;;;16.50;26.67
64064;BME280;50314;50.618;10.642;2023-03-25T07:44:47;95709.16;;;16.50;26.74
64064;BME280;50314;50.618;10.642;2023-03-25T07:47:12;95709.81;;;16.52;26.65
64064;BME280;50314;50.618;10.642;2023-03-25T07:49:37;95708.78;;;16.53;26.64
64064;BME280;50314;50.618;10.642;2023-03-25T07:52:06;95715.13;;;16.52;26.54
64064;BME280;50314;50.618;10.642;2023-03-25T07:54:32;95720.44;;;16.52;26.74
64064;BME280;50314;50.618;10.642;2023-03-25T07:56:57;95728.41;;;16.52;26.77
64064;BME280;50314;50.618;10.642;2023-03-25T07:59:23;95726.59;;;16.52;26.50
64064;BME280;50314;50.618;10.642;2023-03-25T08:01:49;95739.69;;;16.54;26.60
64064;BME280;50314;50.618;10.642;2023-03-25T08:04:15;95738.66;;;16.55;26.64
64064;BME280;50314;50.618;10.642;2023-03-25T08:06:40;95739.34;;;16.57;26.59
64064;BME280;50314;50.618;10.642;2023-03-25T08:09:06;95741.66;;;16.60;26.47
64064;BME280;50314;50.618;10.642;2023-03-25T08:11:31;95732.50;;;16.62;26.65
64064;BME280;50314;50.618;10.642;2023-03-25T08:13:57;95741.31;;;16.63;26.65
64064;BME280;50314;50.618;10.642;2023-03-25T08:16:22;95732.16;;;16.65;26.61
64064;BME280;50314;50.618;10.642;2023-03-25T08:18:48;95731.16;;;16.66;26.51
64064;BME280;50314;50.618;10.642;2023-03-25T08:21:18;95731.97;;;16.67;26.77
64064;BME280;50314;50.618;10.642;2023-03-25T08:23:50;95728.31;;;16.68;26.79
64064;BME280;50314;50.618;10.642;2023-03-25T08:26:16;95733.28;;;16.71;26.57
64064;BME280;50314;50.618;10.642;2023-03-25T08:28:42;95731.28;;;16.73;26.65
64064;BME280;50314;50.618;10.642;2023-03-25T08:31:07;95724.31;;;16.72;26.76
64064;BME280;50314;50.618;10.642;2023-03-25T08:33:33;95724.31;;;16.72;26.57
64064;BME280;50314;50.618;10.642;2023-03-25T08:36:04;95725.78;;;16.75;26.73
64064;BME280;50314;50.618;10.642;2023-03-25T08:38:30;95728.28;;;16.76;26.65
64064;BME280;50314;50.618;10.642;2023-03-25T08:40:59;95721.31;;;16.75;26.58
64064;BME280;50314;50.618;10.642;2023-03-25T08:43:25;95723.78;;;16.77;26.64
64064;BME280;50314;50.618;10.642;2023-03-25T08:45:51;95726.25;;;16.78;26.66
64064;BME280;50314;50.618;10.642;2023-03-25T08:48:16;95718.47;;;16.77;26.94
64064;BME280;50314;50.618;10.642;2023-03-25T08:50:42;95720.09;;;16.78;26.62
64064;BME280;50314;50.618;10.642;2023-03-25T08:53:08;95714.97;;;16.76;26.80
64064;BME280;50314;50.618;10.642;2023-03-25T08:55:35;95721.13;;;16.77;26.81
64064;BME280;50314;50.618;10.642;2023-03-25T08:58:02;95718.28;;;16.78;26.61
64064;BME280;50314;50.618;10.642;2023-03-25T09:00:28;95710.97;;;16.80;26.85
64064;BME280;50314;50.618;10.642;2023-03-25T09:02:53;95719.94;;;16.79;26.78
64064;BME280;50314;50.618;10.642;2023-03-25T09:05:21;95721.63;;;16.80;26.82
64064;BME280;50314;50.618;10.642;2023-03-25T09:07:47;95724.94;;;16.82;26.85
64064;BME280;50314;50.618;10.642;2023-03-25T09:10:12;95733.56;;;16.84;26.92
64064;BME280;50314;50.618;10.642;2023-03-25T09:12:38;95740.56;;;16.85;26.94
64064;BME280;50314;50.618;10.642;2023-03-25T09:15:04;95733.56;;;16.84;26.98
64064;BME280;50314;50.618;10.642;2023-03-25T09:17:30;95736.22;;;16.84;26.94
64064;BME280;50314;50.618;10.642;2023-03-25T09:19:55;95731.91;;;16.83;26.68
64064;BME280;50314;50.618;10.642;2023-03-25T09:22:21;95726.59;;;16.83;26.43
64064;BME280;50314;50.618;10.642;2023-03-25T09:24:47;95727.41;;;16.84;26.44
64064;BME280;50314;50.618;10.642;2023-03-25T09:27:12;95724.59;;;16.85;26.60
64064;BME280;50314;50.618;10.642;2023-03-25T09:29:37;95727.25;;;16.85;26.62
64064;BME280;50314;50.618;10.642;2023-03-25T09:32:03;95730.91;;;16.84;26.47
64064;BME280;50314;50.618;10.642;2023-03-25T09:34:29;95728.25;;;16.84;26.77
64064;BME280;50314;50.618;10.642;2023-03-25T09:36:55;95728.06;;;16.86;26.86
64064;BME280;50314;50.618;10.642;2023-03-25T09:39:21;95724.59;;;16.85;26.76
64064;BME280;50314;50.618;10.642;2023-03-25T09:42:12;95730.91;;;16.84;26.85
64064;BME280;50314;50.618;10.642;2023-03-25T09:44:57;95729.75;;;16.79;27.08
64064;BME280;50314;50.618;10.642;2023-03-25T09:47:28;95739.88;;;16.83;26.93
64064;BME280;50314;50.618;10.642;2023-03-25T09:50:00;95725.56;;;16.84;26.94
64064;BME280;50314;50.618;10.642;2023-03-25T09:55:34;95724.94;;;16.82;26.87
64064;BME280;50314;50.618;10.642;2023-03-25T09:58:24;95734.22;;;16.78;27.36
64064;BME280;50314;50.618;10.642;2023-03-25T10:01:04;95732.25;;;16.80;27.11
64064;BME280;50314;50.618;10.642;2023-03-25T10:06:18;95726.59;;;16.83;27.26
64064;BME280;50314;50.618;10.642;2023-03-25T10:14:26;95720.25;;;16.84;27.23
64064;BME280;50314;50.618;10.642;2023-03-25T10:17:14;95715.88;;;16.91;27.46
64064;BME280;50314;50.618;10.642;2023-03-25T10:25:05;95716.84;;;16.99;27.68
64064;BME280;50314;50.618;10.642;2023-03-25T10:27:41;95711.00;;;17.03;27.38
64064;BME280;50314;50.618;10.642;2023-03-25T10:32:41;95713.81;;;17.02;25.79
64064;BME280;50314;50.618;10.642;2023-03-25T10:35:20;95700.50;;;17.02;26.56
64064;BME280;50314;50.618;10.642;2023-03-25T10:37:51;95700.81;;;17.07;26.26
64064;BME280;50314;50.618;10.642;2023-03-25T10:40:30;95696.78;;;17.11;26.31
64064;BME280;50314;50.618;10.642;2023-03-25T10:45:28;95685.72;;;17.22;26.88
64064;BME280;50314;50.618;10.642;2023-03-25T10:48:03;95687.63;;;17.36;27.68
64064;BME280;50314;50.618;10.642;2023-03-25T10:50:29;95684.69;;;17.46;26.96
64064;BME280;50314;50.618;10.642;2023-03-25T10:52:55;95681.69;;;17.49;26.96
64064;BME280;50314;50.618;10.642;2023-03-25T10:55:27;95685.00;;;17.51;27.19
64064;BME280;50314;50.618;10.642;2023-03-25T10:57:56;95686.47;;;17.54;26.85
64064;BME280;50314;50.618;10.642;2023-03-25T11:00:22;95692.44;;;17.56;26.87
64064;BME280;50314;50.618;10.642;2023-03-25T11:02:50;95683.91;;;17.60;27.20
64064;BME280;50314;50.618;10.642;2023-03-25T11:05:22;95687.97;;;17.71;27.28
64064;BME280;50314;50.618;10.642;2023-03-25T11:07:49;95672.44;;;17.90;26.88
64064;BME280;50314;50.618;10.642;2023-03-25T11:12:50;95660.72;;;18.14;26.97
64064;BME280;50314;50.618;10.642;2023-03-25T11:17:46;95656.09;;;18.22;25.64
64064;BME280;50314;50.618;10.642;2023-03-25T11:20:27;95656.81;;;18.16;24.26
64064;BME280;50314;50.618;10.642;2023-03-25T11:23:00;95656.19;;;18.14;23.91
64064;BME280;50314;50.618;10.642;2023-03-25T11:25:35;95663.88;;;18.09;23.49
64064;BME280;50314;50.618;10.642;2023-03-25T11:28:07;95654.81;;;18.03;23.35
64064;BME280;50314;50.618;10.642;2023-03-25T11:30:33;95659.19;;;17.96;23.71
64064;BME280;50314;50.618;10.642;2023-03-25T11:33:03;95702.94;;;17.87;23.03
64064;BME280;50314;50.618;10.642;2023-03-25T11:35:34;95771.06;;;17.81;23.64
64064;BME280;50314;50.618;10.642;2023-03-25T11:38:12;95769.31;;;17.74;23.67
64064;BME280;50314;50.618;10.642;2023-03-25T11:40:50;95774.34;;;17.69;24.03
64064;BME280;50314;50.618;10.642;2023-03-25T11:43:20;95771.69;;;17.69;24.20
64064;BME280;50314;50.618;10.642;2023-03-25T11:45:47;95789.50;;;17.68;24.35
64064;BME280;50314;50.618;10.642;2023-03-25T11:48:19;95768.75;;;17.64;24.54
64064;BME280;50314;50.618;10.642;2023-03-25T11:50:56;95772.13;;;17.57;24.53
64064;BME280;50314;50.618;10.642;2023-03-25T11:53:25;95772.94;;;17.58;24.75
64064;BME280;50314;50.618;10.642;2023-03-25T11:55:59;95761.84;;;17.54;24.87
64064;BME280;50314;50.618;10.642;2023-03-25T11:58:28;95758.16;;;17.55;24.86
64064;BME280;50314;50.618;10.642;2023-03-25T12:01:06;95756.03;;;17.51;24.85
64064;BME280;50314;50.618;10.642;2023-03-25T12:03:33;95744.56;;;17.50;25.07
64064;BME280;50314;50.618;10.642;2023-03-25T12:08:42;95744.75;;;17.49;25.26
64064;BME280;50314;50.618;10.642;2023-03-25T12:11:22;95741.94;;;17.42;25.35
64064;BME280;50314;50.618;10.642;2023-03-25T12:14:18;95750.13;;;17.41;25.27
64064;BME280;50314;50.618;10.642;2023-03-25T12:16:57;95744.78;;;17.41;25.28
64064;BME280;50314;50.618;10.642;2023-03-25T12:27:41;95751.06;;;17.48;25.62
64064;BME280;50314;50.618;10.642;2023-03-25T12:35:51;95733.69;;;17.60;25.88
64064;BME280;50314;50.618;10.642;2023-03-25T12:41:39;95737.16;;;17.75;25.64
64064;BME280;50314;50.618;10.642;2023-03-25T12:44:22;95716.53;;;17.77;25.62
64064;BME280;50314;50.618;10.642;2023-03-25T12:46:58;95711.81;;;17.79;25.58
64064;BME280;50314;50.618;10.642;2023-03-25T12:49:55;95699.47;;;17.87;25.80
64064;BME280;50314;50.618;10.642;2023-03-25T12:52:42;95691.38;;;17.95;25.40
64064;BME280;50314;50.618;10.642;2023-03-25T13:01:14;95699.00;;;18.13;25.68
64064;BME280;50314;50.618;10.642;2023-03-25T13:03:51;95688.63;;;18.18;25.97
64064;BME280;50314;50.618;10.642;2023-03-25T13:06:28;95687.50;;;18.27;25.89
64064;BME280;50314;50.618;10.642;2023-03-25T13:09:03;95691.53;;;18.38;26.06
64064;BME280;50314;50.618;10.642;2023-03-25T13:11:46;95676.63;;;18.43;25.86
64064;BME280;50314;50.618;10.642;2023-03-25T13:14:24;95676.31;;;18.53;25.61
64064;BME280;50314;50.618;10.642;2023-03-25T13:16:54;95676.41;;;18.60;25.63
64064;BME280;50314;50.618;10.642;2023-03-25T13:19:25;95666.19;;;18.63;25.53
64064;BME280;50314;50.618;10.642;2023-03-25T13:22:15;95664.91;;;18.59;25.79
64064;BME280;50314;50.618;10.642;2023-03-25T13:24:48;95660.03;;;18.63;25.35
64064;BME280;50314;50.618;10.642;2023-03-25T13:27:15;95665.94;;;18.58;25.89
64064;BME280;50314;50.618;10.642;2023-03-25T13:29:45;95651.44;;;18.67;25.50
64064;BME280;50314;50.618;10.642;2023-03-25T13:32:17;95658.44;;;18.68;25.47
64064;BME280;50314;50.618;10.642;2023-03-25T13:34:50;95656.41;;;18.70;25.78
64064;BME280;50314;50.618;10.642;2023-03-25T13:37:25;95656.03;;;18.73;25.37
64064;BME280;50314;50.618;10.642;2023-03-25T13:45:14;95651.50;;;18.74;24.27
64064;BME280;50314;50.618;10.642;2023-03-25T13:47:44;95643.50;;;18.74;24.86
64064;BME280;50314;50.618;10.642;2023-03-25T13:52:45;95652.00;;;18.77;25.10
64064;BME280;50314;50.618;10.642;2023-03-25T13:55:20;95642.34;;;18.76;25.06
64064;BME280;50314;50.618;10.642;2023-03-25T14:06:50;95636.38;;;18.74;24.97
64064;BME280;50314;50.618;10.642;2023-03-25T14:14:57;95640.50;;;18.77;25.49
64064;BME280;50314;50.618;10.642;2023-03-25T14:17:25;95648.31;;;18.78;25.30
64064;BME280;50314;50.618;10.642;2023-03-25T14:19:53;95632.94;;;18.81;25.04
64064;BME280;50314;50.618;10.642;2023-03-25T14:22:28;95631.13;;;18.81;25.14
64064;BME280;50314;50.618;10.642;2023-03-25T14:24:56;95630.72;;;18.84;25.58
64064;BME280;50314;50.618;10.642;2023-03-25T14:27:26;95636.91;;;18.85;25.44
64064;BME280;50314;50.618;10.642;2023-03-25T14:30:06;95641.59;;;18.83;25.10
64064;BME280;50314;50.618;10.642;2023-03-25T14:32:40;95629.34;;;18.88;25.07
64064;BME280;50314;50.618;10.642;2023-03-25T14:38:16;95623.13;;;18.81;25.46
64064;BME280;50314;50.618;10.642;2023-03-25T14:40:48;95641.59;;;18.83;24.96
64064;BME280;50314;50.618;10.642;2023-03-25T14:43:37;95665.31;;;18.77;25.14
64064;BME280;50314;50.618;10.642;2023-03-25T14:51:22;95652.47;;;18.81;25.43
64064;BME280;50314;50.618;10.642;2023-03-25T14:54:15;95648.56;;;18.84;25.67
64064;BME280;50314;50.618;10.642;2023-03-25T14:59:15;95644.91;;;18.85;25.42
64064;BME280;50314;50.618;10.642;2023-03-25T15:01:43;95652.06;;;18.84;25.62
64064;BME280;50314;50.618;10.642;2023-03-25T15:04:25;95644.63;;;18.80;25.77